Terminal Aerodrome Forecast
Issued by NWS Binghamton, NY

Home | Current Version | Previous Version | Text Only | Print | Product List | Glossary On
Versions: 1 2 3 4 5 6 7 8 9 10 11 12 13 14 15 16 17 18 19 20 21
338
FTUS41 KBGM 200403 AAB
TAFBGM
TAF AMD
KBGM 200403Z 2004/2024 26010KT 3SM BR BKN025
      TEMPO 2004/2008 1SM BR BKN001
     FM200800 29005KT 2SM BR BKN005
     FM201400 30010KT P6SM SCT045=

USA.gov is the U.S. government's official web portal to all federal, state and local government web resources and services.